createdAt,value
2022-12-08T00:02:46.521Z,11.29
2022-12-08T00:08:07.232Z,11.26
2022-12-08T00:13:13.914Z,11.23
2022-12-08T00:18:15.436Z,11.24
2022-12-08T00:23:17.045Z,11.21
2022-12-08T00:28:18.609Z,11.17
2022-12-08T00:33:20.244Z,11.15
2022-12-08T00:38:21.791Z,11.12
2022-12-08T00:43:23.353Z,11.13
2022-12-08T00:48:24.986Z,11.06
2022-12-08T00:53:26.541Z,11.11
2022-12-08T00:58:28.761Z,11.12
2022-12-08T01:03:30.329Z,11.22
2022-12-08T01:08:32.505Z,11.28
2022-12-08T01:13:34.304Z,11.33
2022-12-08T01:18:36.770Z,11.39
2022-12-08T01:23:38.382Z,11.43
2022-12-08T01:28:40.917Z,11.49
2022-12-08T01:33:43.656Z,11.48
2022-12-08T01:38:45.262Z,11.52
2022-12-08T01:44:00.842Z,11.55
2022-12-08T01:49:08.371Z,11.54
2022-12-08T01:54:10.987Z,11.57
2022-12-08T01:59:13.102Z,11.61
2022-12-08T02:04:14.809Z,11.63
2022-12-08T02:09:16.581Z,11.62
2022-12-08T02:14:18.181Z,11.59
2022-12-08T02:20:04.545Z,11.53
2022-12-08T02:25:20.485Z,11.49
2022-12-08T02:30:35.818Z,11.41
2022-12-08T02:35:54.527Z,11.39
2022-12-08T02:41:24.752Z,11.37
2022-12-08T02:46:34.589Z,11.29
2022-12-08T02:51:36.204Z,11.26
2022-12-08T02:56:50.719Z,11.26
2022-12-08T03:02:18.038Z,11.29
2022-12-08T03:07:32.018Z,11.33
2022-12-08T03:12:43.580Z,11.39
2022-12-08T03:17:56.754Z,11.42
2022-12-08T03:23:00.672Z,11.47
2022-12-08T03:28:02.891Z,11.54
2022-12-08T03:33:18.006Z,11.57
2022-12-08T03:38:19.875Z,11.58
2022-12-08T03:43:21.476Z,11.58
2022-12-08T03:48:23.013Z,11.59
2022-12-08T03:53:24.622Z,11.61
2022-12-08T03:58:26.169Z,11.57
2022-12-08T04:03:27.751Z,11.60
2022-12-08T04:08:29.339Z,11.58
2022-12-08T04:13:31.217Z,11.54
2022-12-08T04:18:34.520Z,11.49
2022-12-08T04:23:36.128Z,11.50
2022-12-08T04:28:37.755Z,11.48
2022-12-08T04:33:39.268Z,11.51
2022-12-08T04:38:40.880Z,11.51
2022-12-08T04:43:44.318Z,11.45
2022-12-08T04:48:45.989Z,11.44
2022-12-08T04:53:47.719Z,11.41
2022-12-08T04:58:49.588Z,11.41
2022-12-08T05:03:51.131Z,11.37
2022-12-08T05:08:52.840Z,11.37
2022-12-08T05:13:54.679Z,11.42
2022-12-08T05:18:56.381Z,11.43
2022-12-08T05:23:58.201Z,11.43
2022-12-08T05:28:59.986Z,11.42
2022-12-08T05:34:03.364Z,11.41
2022-12-08T05:39:05.623Z,11.42
2022-12-08T05:44:07.347Z,11.42
2022-12-08T05:49:09.025Z,11.41
2022-12-08T05:54:10.676Z,11.37
2022-12-08T05:59:12.406Z,11.39
2022-12-08T06:04:14.145Z,11.36
2022-12-08T06:09:15.838Z,11.31
2022-12-08T06:14:17.506Z,11.29
2022-12-08T06:19:19.325Z,11.28
2022-12-08T06:24:20.917Z,11.32
2022-12-08T06:29:22.757Z,11.37
2022-12-08T06:34:24.582Z,11.38
2022-12-08T06:39:26.293Z,11.39
2022-12-08T06:44:27.985Z,11.48
2022-12-08T06:49:29.617Z,11.51
2022-12-08T06:54:31.277Z,11.51
2022-12-08T06:59:32.972Z,11.58
2022-12-08T07:04:34.621Z,11.67
2022-12-08T07:09:36.931Z,11.68
2022-12-08T07:14:38.785Z,11.72
2022-12-08T07:19:40.589Z,11.73
2022-12-08T07:24:42.285Z,12.01
2022-12-08T07:29:43.935Z,12.12
2022-12-08T07:34:47.224Z,11.83
2022-12-08T07:39:49.357Z,11.74
2022-12-08T07:44:51.367Z,11.71
2022-12-08T07:49:53.185Z,11.74
2022-12-08T07:54:55.040Z,11.83
2022-12-08T07:59:56.671Z,11.92
2022-12-08T08:04:58.537Z,12.04
2022-12-08T08:10:00.349Z,12.02
2022-12-08T08:15:02.699Z,12.17
2022-12-08T08:20:07.216Z,12.31
2022-12-08T08:25:09.278Z,12.42
2022-12-08T08:30:16.557Z,12.58
2022-12-08T08:35:20.022Z,12.82
2022-12-08T08:40:21.712Z,12.93
2022-12-08T08:45:23.335Z,13.12
2022-12-08T08:50:25.171Z,13.33
2022-12-08T08:55:26.930Z,13.54
2022-12-08T09:00:30.190Z,13.82
2022-12-08T09:05:32.018Z,13.91
2022-12-08T09:10:33.543Z,13.97
2022-12-08T09:15:35.471Z,14.06
2022-12-08T09:20:37.505Z,14.18
2022-12-08T09:25:39.210Z,14.25
2022-12-08T09:30:41.050Z,14.28
2022-12-08T09:35:42.721Z,14.61
2022-12-08T09:40:54.048Z,14.40
2022-12-08T09:45:56.072Z,14.43
2022-12-08T09:50:58.376Z,14.59
2022-12-08T09:56:06.432Z,14.51
2022-12-08T10:01:12.272Z,14.63
2022-12-08T10:06:49.892Z,14.69
2022-12-08T10:11:55.768Z,14.74
2022-12-08T10:17:02.328Z,14.72
2022-12-08T10:22:14.201Z,14.79
2022-12-08T10:27:15.957Z,14.91
2022-12-08T10:32:19.099Z,14.92
2022-12-08T10:37:20.840Z,14.77
2022-12-08T10:42:22.621Z,14.68
2022-12-08T10:47:25.952Z,14.70
2022-12-08T10:52:27.906Z,14.75
2022-12-08T10:57:29.656Z,14.68
2022-12-08T11:02:31.452Z,14.49
2022-12-08T11:07:33.889Z,14.38
2022-12-08T11:12:36.782Z,14.29
2022-12-08T11:17:41.633Z,14.22
2022-12-08T11:22:45.199Z,14.22
2022-12-08T11:27:48.909Z,14.31
2022-12-08T11:32:56.160Z,14.39
2022-12-08T11:38:13.660Z,14.41
2022-12-08T11:43:31.410Z,14.37
2022-12-08T11:48:36.463Z,14.35
2022-12-08T11:53:38.114Z,14.33
2022-12-08T11:58:49.815Z,14.26
2022-12-08T12:04:01.931Z,14.28
2022-12-08T12:09:22.762Z,14.26
2022-12-08T12:14:41.839Z,14.27
2022-12-08T12:19:43.909Z,14.11
2022-12-08T12:24:47.798Z,13.93
2022-12-08T12:30:00.037Z,13.81
2022-12-08T12:35:01.803Z,13.66
2022-12-08T12:40:07.605Z,13.69
2022-12-08T12:45:22.003Z,13.67
2022-12-08T12:50:34.254Z,13.63
2022-12-08T12:55:45.468Z,13.59
2022-12-08T13:00:47.425Z,13.56
2022-12-08T13:05:51.443Z,13.46
2022-12-08T13:11:19.790Z,13.41
2022-12-08T13:16:24.184Z,13.42
2022-12-08T13:21:33.154Z,13.44
2022-12-08T13:26:43.218Z,13.42
2022-12-08T13:31:52.017Z,13.35
2022-12-08T13:36:59.658Z,13.32
2022-12-08T13:42:20.609Z,13.25
2022-12-08T13:47:33.874Z,13.19
2022-12-08T13:58:24.270Z,13.15
2022-12-08T14:03:26.264Z,13.10
2022-12-08T14:08:58.821Z,13.01
2022-12-08T14:13:54.215Z,13.04
2022-12-08T14:19:03.151Z,13.02
2022-12-08T14:24:04.947Z,13.03
2022-12-08T14:29:07.722Z,12.99
2022-12-08T14:34:10.693Z,12.95
2022-12-08T14:39:12.483Z,12.89
2022-12-08T14:44:24.506Z,12.86
2022-12-08T14:49:34.132Z,12.84
2022-12-08T14:54:35.926Z,12.84
2022-12-08T14:59:39.043Z,12.80
2022-12-08T15:04:42.527Z,12.80
2022-12-08T15:09:45.899Z,12.79
2022-12-08T15:14:55.261Z,12.81
2022-12-08T15:19:58.067Z,12.81
2022-12-08T15:25:00.636Z,12.80
2022-12-08T15:30:02.655Z,12.78
2022-12-08T15:35:04.850Z,12.74
2022-12-08T15:40:07.600Z,12.79
2022-12-08T15:45:16.758Z,12.83
2022-12-08T15:50:20.130Z,12.82
2022-12-08T15:55:22.042Z,12.80
2022-12-08T16:00:51.330Z,12.81
2022-12-08T16:06:10.267Z,12.66
2022-12-08T16:12:04.039Z,12.64
2022-12-08T16:16:51.279Z,12.67
2022-12-08T16:22:30.192Z,12.65
2022-12-08T16:27:59.172Z,12.62
2022-12-08T16:32:41.560Z,12.60
2022-12-08T16:37:43.406Z,12.58
2022-12-08T16:42:47.725Z,12.62
2022-12-08T16:47:50.957Z,12.68
2022-12-08T16:52:57.493Z,12.74
2022-12-08T16:57:59.501Z,12.82
2022-12-08T17:03:01.425Z,12.89
2022-12-08T17:08:03.164Z,12.90
2022-12-08T17:13:05.121Z,12.95
2022-12-08T17:18:06.879Z,12.98
2022-12-08T17:23:08.685Z,13.00
2022-12-08T17:28:10.338Z,12.99
2022-12-08T17:33:12.106Z,12.96
2022-12-08T17:38:13.796Z,12.96
2022-12-08T17:43:15.642Z,12.97
2022-12-08T17:48:17.382Z,12.94
2022-12-08T17:53:19.451Z,12.92
2022-12-08T17:58:21.665Z,12.96
2022-12-08T18:03:23.904Z,12.96
2022-12-08T18:08:26.130Z,12.88
2022-12-08T18:13:27.975Z,12.88
2022-12-08T18:18:29.721Z,12.86
2022-12-08T18:23:31.655Z,12.90
2022-12-08T18:28:33.384Z,12.88
2022-12-08T18:33:35.209Z,12.85
2022-12-08T18:38:37.634Z,12.92
2022-12-08T18:43:46.946Z,12.98
2022-12-08T18:48:49.652Z,13.03
2022-12-08T18:53:51.860Z,13.00
2022-12-08T18:58:58.438Z,12.99
2022-12-08T19:09:29.093Z,12.97
2022-12-08T19:14:32.448Z,12.86
2022-12-08T19:19:34.917Z,12.79
2022-12-08T19:24:36.746Z,12.71
2022-12-08T19:29:39.032Z,12.71
2022-12-08T19:34:41.355Z,12.79
2022-12-08T19:40:01.930Z,12.89
2022-12-08T19:45:11.092Z,12.86
2022-12-08T19:50:32.552Z,12.84
2022-12-08T19:55:34.478Z,12.93
2022-12-08T20:00:37.418Z,13.01
2022-12-08T20:05:40.004Z,12.98
2022-12-08T20:10:42.901Z,13.07
2022-12-08T20:15:45.125Z,13.16
2022-12-08T20:20:47.435Z,13.17
2022-12-08T20:25:49.228Z,13.14
2022-12-08T20:30:51.989Z,13.16
2022-12-08T20:36:01.253Z,13.20
2022-12-08T20:41:02.953Z,13.15
2022-12-08T20:46:05.704Z,13.06
2022-12-08T20:51:07.643Z,13.03
2022-12-08T20:56:13.730Z,13.07
2022-12-08T21:01:17.053Z,13.06
2022-12-08T21:06:23.650Z,13.06
2022-12-08T21:11:25.612Z,13.06
2022-12-08T21:16:27.611Z,13.07
2022-12-08T21:21:30.003Z,13.14
2022-12-08T21:26:32.458Z,13.16
2022-12-08T21:31:36.298Z,13.07
2022-12-08T21:36:38.481Z,12.99
2022-12-08T21:41:59.133Z,12.94
2022-12-08T21:47:01.315Z,12.97
2022-12-08T21:52:03.356Z,12.93
2022-12-08T21:57:05.309Z,12.96
2022-12-08T22:02:10.013Z,12.99
2022-12-08T22:07:12.009Z,12.87
2022-12-08T22:12:17.308Z,12.83
2022-12-08T22:17:19.874Z,12.76
2022-12-08T22:22:22.261Z,12.80
2022-12-08T22:27:24.165Z,12.74
2022-12-08T22:32:26.558Z,12.67
2022-12-08T22:37:28.593Z,12.63
2022-12-08T22:42:30.396Z,12.66
2022-12-08T22:47:32.306Z,12.63
2022-12-08T22:52:34.159Z,12.61
2022-12-08T22:57:36.012Z,12.59
2022-12-08T23:02:37.936Z,12.58
2022-12-08T23:07:40.313Z,12.53
2022-12-08T23:12:42.191Z,12.53
2022-12-08T23:17:44.018Z,12.58
2022-12-08T23:22:45.903Z,12.59
2022-12-08T23:27:47.621Z,12.59
2022-12-08T23:32:49.458Z,12.72
2022-12-08T23:37:53.367Z,12.52
2022-12-08T23:42:54.969Z,12.52
2022-12-08T23:47:56.588Z,12.54
2022-12-08T23:52:58.249Z,12.58
2022-12-08T23:57:59.988Z,12.61
